TimePDT,TemperatureF,Dew PointF,Humidity,Sea Level PressureIn,VisibilityMPH,Wind Direction,Wind SpeedMPH,Gust SpeedMPH,PrecipitationIn,Events,Conditions,WindDirDegrees,DateUTC
12:42 AM,55.4,42.8,63,30.11,4.0,Variable,3.5,-,N/A,,Haze,0,2013-08-02 07:42:00
12:56 AM,55.0,43.0,64,30.08,4.0,Calm,Calm,-,N/A,,Haze,0,2013-08-02 07:56:00
1:56 AM,52.0,42.1,69,30.09,4.0,Calm,Calm,-,N/A,,Haze,0,2013-08-02 08:56:00
2:26 AM,51.8,42.8,71,30.11,4.0,Calm,Calm,-,N/A,,Haze,0,2013-08-02 09:26:00
2:56 AM,48.9,42.1,77,30.09,4.0,Calm,Calm,-,N/A,,Haze,0,2013-08-02 09:56:00
3:56 AM,48.9,42.1,77,30.08,5.0,Calm,Calm,-,N/A,,Haze,0,2013-08-02 10:56:00
4:56 AM,48.0,42.1,80,30.09,6.0,Calm,Calm,-,N/A,,Haze,0,2013-08-02 11:56:00
5:56 AM,50.0,43.0,77,30.09,7.0,Calm,Calm,-,N/A,,Clear,0,2013-08-02 12:56:00
6:56 AM,48.9,42.1,77,30.11,5.0,Calm,Calm,-,N/A,,Haze,0,2013-08-02 13:56:00
7:56 AM,54.0,44.1,69,30.11,6.0,Variable,4.6,-,N/A,,Haze,0,2013-08-02 14:56:00
8:56 AM,60.1,45.0,57,30.11,5.0,Calm,Calm,-,N/A,,Haze,0,2013-08-02 15:56:00
9:56 AM,64.9,45.0,48,30.09,5.0,Calm,Calm,-,N/A,,Haze,0,2013-08-02 16:56:00
10:56 AM,68.0,41.0,37,30.09,7.0,Variable,6.9,-,N/A,,Clear,0,2013-08-02 17:56:00
11:56 AM,73.0,41.0,31,30.06,10.0,Variable,5.8,-,N/A,,Clear,0,2013-08-02 18:56:00
12:56 PM,77.0,39.9,26,30.04,10.0,WNW,8.1,-,N/A,,Clear,290,2013-08-02 19:56:00
1:56 PM,78.1,36.0,22,30.04,10.0,Variable,5.8,-,N/A,,Clear,0,2013-08-02 20:56:00
2:56 PM,80.1,36.0,20,30.02,10.0,Variable,5.8,-,N/A,,Clear,0,2013-08-02 21:56:00
3:56 PM,80.1,32.0,17,30.01,10.0,Variable,6.9,-,N/A,,Clear,0,2013-08-02 22:56:00
4:56 PM,79.0,30.0,17,29.99,10.0,Variable,4.6,-,N/A,,Clear,0,2013-08-02 23:56:00
5:56 PM,77.0,28.0,17,29.99,10.0,Variable,4.6,-,N/A,,Clear,0,2013-08-03 00:56:00
6:56 PM,75.0,32.0,21,29.99,10.0,Variable,3.5,-,N/A,,Clear,0,2013-08-03 01:56:00
7:56 PM,71.1,35.1,27,30.00,10.0,North,9.2,-,N/A,,Clear,350,2013-08-03 02:56:00
8:56 PM,69.1,35.1,29,30.02,10.0,Variable,4.6,-,N/A,,Clear,0,2013-08-03 03:56:00
9:56 PM,64.9,33.1,31,30.04,10.0,Variable,3.5,-,N/A,,Clear,0,2013-08-03 04:56:00
10:56 PM,64.9,35.1,33,30.04,10.0,Variable,6.9,-,N/A,,Clear,0,2013-08-03 05:56:00
11:56 PM,62.1,37.0,39,30.04,10.0,NE,3.5,-,N/A,,Clear,40,2013-08-03 06:56:00